Hampton, Mississippi
Current Conditions -  °F | °C
As of 11:53 AM on Friday 19 Dec 2014 (Local Time) from KGLH Reporting Station
Light Rain Light Rain  
Wind Chill: 42°   Ceiling: 3200
Heat Index: 47°   Visibility: 6mi
Dew Point: 42°   Wind: 12mph
Humidity: 83%   Direction: 10°N
Pressure: 30.24"   Gusts: NA
Location:  33.0379°N, 90.9708°W
Report Text: KGLH 191753Z AUTO 01010KT 6SM -RA OVC032 08/06 A3024 RMK AO2 RAB38 SLP248 P0000 60000 T00830056 10083 20067 50004
Loading
Personal Weather Stations






























Interactive Weather Map New forecast layout! Learn more

10-Day Weather Forecast

Advertisements
Track Severe Weather on mobile